createdAt,value
2023-03-23T15:58:45.314Z,16.80
2023-03-23T16:01:48.659Z,16.70
2023-03-23T16:04:52.775Z,16.70
2023-03-23T16:07:57.492Z,16.60
2023-03-23T16:11:01.098Z,16.60
2023-03-23T16:14:04.535Z,16.50
2023-03-23T16:17:08.044Z,16.60
2023-03-23T16:20:16.404Z,16.60
2023-03-23T16:23:21.315Z,16.60
2023-03-23T16:26:25.367Z,16.70
2023-03-23T16:29:46.792Z,16.70
2023-03-23T16:32:54.176Z,16.60
2023-03-23T16:35:58.774Z,16.50
2023-03-23T16:39:03.967Z,16.40
2023-03-23T16:42:07.271Z,16.30
2023-03-23T16:45:11.615Z,16.20
2023-03-23T16:48:16.807Z,16.10
2023-03-23T16:51:20.048Z,16.00
2023-03-23T16:54:24.625Z,15.90
2023-03-23T16:57:28.796Z,15.90
2023-03-23T17:00:32.059Z,15.80
2023-03-23T17:03:35.774Z,15.70
2023-03-23T17:06:39.163Z,15.70
2023-03-23T17:09:43.890Z,15.60
2023-03-23T17:12:47.079Z,15.60
2023-03-23T17:15:54.168Z,15.50
2023-03-23T17:18:57.412Z,15.40
2023-03-23T17:22:00.906Z,15.30
2023-03-23T17:25:07.284Z,15.30
2023-03-23T17:28:10.579Z,15.20
2023-03-23T17:31:13.969Z,15.20
2023-03-23T17:34:18.753Z,15.20
2023-03-23T17:37:23.185Z,15.10
2023-03-23T17:40:28.178Z,15.00
2023-03-23T17:43:31.573Z,15.00
2023-03-23T17:46:35.445Z,14.90
2023-03-23T17:49:39.096Z,14.80
2023-03-23T17:52:43.355Z,14.80
2023-03-23T17:55:48.021Z,14.80
2023-03-23T17:58:51.742Z,14.60
2023-03-23T18:01:55.020Z,14.60
2023-03-23T18:04:59.558Z,14.50
2023-03-23T18:08:02.765Z,14.60
2023-03-23T18:11:08.977Z,14.60
2023-03-23T18:14:12.513Z,14.70
2023-03-23T18:17:16.013Z,14.70
2023-03-23T18:20:21.755Z,14.60
2023-03-23T18:23:27.737Z,14.60
2023-03-23T18:26:32.897Z,14.60
2023-03-23T18:29:36.162Z,14.70
2023-03-23T18:32:40.487Z,14.60
2023-03-23T18:35:44.124Z,14.50
2023-03-23T18:38:48.062Z,14.30
2023-03-23T18:41:52.688Z,14.20
2023-03-23T18:44:55.987Z,14.10
2023-03-23T18:47:59.314Z,13.90
2023-03-23T18:51:03.311Z,13.70
2023-03-23T18:54:06.660Z,13.60
2023-03-23T18:57:11.292Z,13.40
2023-03-23T19:00:15.125Z,13.30
2023-03-23T19:03:18.720Z,13.10
2023-03-23T19:06:23.880Z,13.10
2023-03-23T19:09:27.856Z,12.90
2023-03-23T19:12:32.515Z,12.90
2023-03-23T19:15:40.451Z,12.80
2023-03-23T19:18:43.754Z,12.80
2023-03-23T19:21:47.369Z,12.70
2023-03-23T19:24:50.683Z,12.70
2023-03-23T19:31:01.785Z,12.60
2023-03-23T19:34:05.890Z,12.50
2023-03-23T19:37:11.342Z,12.50
2023-03-23T19:40:35.567Z,12.50
2023-03-23T19:43:41.700Z,12.40
2023-03-23T19:46:45.023Z,12.40
2023-03-23T19:49:48.360Z,12.50
2023-03-23T19:52:52.791Z,12.40
2023-03-23T19:55:56.339Z,12.40
2023-03-23T19:59:01.119Z,12.40
2023-03-23T20:02:04.521Z,12.60
2023-03-23T20:05:08.727Z,12.60
2023-03-23T20:08:12.610Z,12.60
2023-03-23T20:11:18.121Z,12.60
2023-03-23T20:14:23.172Z,12.60
2023-03-23T20:17:26.708Z,12.60
2023-03-23T20:20:30.716Z,12.70
2023-03-23T20:23:34.990Z,12.60
2023-03-23T20:26:41.142Z,12.50
2023-03-23T20:29:45.835Z,12.60
2023-03-23T20:32:49.681Z,12.70
2023-03-23T20:35:52.990Z,12.70
2023-03-23T20:38:57.292Z,12.60
2023-03-23T20:42:02.926Z,12.70
2023-03-23T20:45:08.507Z,12.60
2023-03-23T20:48:11.904Z,12.70
2023-03-23T20:51:15.706Z,12.60
2023-03-23T20:54:20.300Z,12.50
2023-03-23T20:57:24.926Z,12.50
2023-03-23T21:00:29.506Z,12.50
2023-03-23T21:03:35.962Z,12.40
2023-03-23T21:06:40.145Z,12.50
2023-03-23T21:09:44.172Z,12.40
2023-03-23T21:12:47.376Z,12.40
2023-03-23T21:15:53.065Z,12.40
2023-03-23T21:18:57.199Z,12.40
2023-03-23T21:22:00.691Z,12.50
2023-03-23T21:25:04.172Z,12.40
2023-03-23T21:28:08.823Z,12.40
2023-03-23T21:31:15.065Z,12.40
2023-03-23T21:34:18.533Z,12.30
2023-03-23T21:37:22.604Z,12.30
2023-03-23T21:40:26.136Z,12.20
2023-03-23T21:43:29.609Z,12.30
2023-03-23T21:46:34.252Z,12.30
2023-03-23T21:49:40.641Z,12.30
2023-03-23T21:52:45.096Z,12.30
2023-03-23T21:55:51.484Z,12.20
2023-03-23T21:58:55.221Z,12.10
2023-03-23T22:02:02.635Z,12.20
2023-03-23T22:05:06.522Z,12.30
2023-03-23T22:08:09.789Z,12.20
2023-03-23T22:11:15.859Z,12.20
2023-03-23T22:14:19.258Z,12.10
2023-03-23T22:17:24.023Z,12.10
2023-03-23T22:20:27.593Z,12.10
2023-03-23T22:23:31.116Z,12.10
2023-03-23T22:26:34.754Z,12.10
2023-03-23T22:29:38.109Z,12.00
2023-03-23T22:32:42.824Z,12.00
2023-03-23T22:35:48.025Z,12.00
2023-03-23T22:38:51.903Z,12.00
2023-03-23T22:41:55.161Z,12.00
2023-03-23T22:44:58.598Z,12.00
2023-03-23T22:48:05.668Z,12.00
2023-03-23T22:51:10.621Z,12.00
2023-03-23T22:54:14.369Z,12.00
2023-03-23T22:57:17.697Z,11.90
2023-03-23T23:00:21.270Z,12.00
2023-03-23T23:03:26.722Z,11.90
2023-03-23T23:06:30.056Z,11.90
2023-03-23T23:09:33.457Z,11.90
2023-03-23T23:12:36.715Z,11.80
2023-03-23T23:15:42.743Z,11.80
2023-03-23T23:18:48.542Z,11.80
2023-03-23T23:21:52.052Z,12.00
2023-03-23T23:24:55.409Z,11.90
2023-03-23T23:28:00.811Z,12.00
2023-03-23T23:31:04.237Z,12.00
2023-03-23T23:34:08.929Z,12.00
2023-03-23T23:37:12.258Z,11.90
2023-03-23T23:40:16.025Z,11.80
2023-03-23T23:43:19.326Z,11.80
2023-03-23T23:46:22.748Z,11.80
2023-03-23T23:49:28.558Z,11.90
2023-03-23T23:52:31.872Z,11.90
2023-03-23T23:55:35.400Z,11.80
2023-03-23T23:58:38.683Z,11.80
